Denver, CO (80222)

12:35 PM MDT on August 20, 2017 (GMT -0600)
Clancy Systems | | Change Station

Elev 5472 ft 39.68 °N, 104.93 °W | Updated 5 seconds ago

Partly Cloudy
Partly Cloudy
85.6 °F
Feels Like 82 °F
N
6.0
Wind Variable Wind from East
Gusts 7.6 mph

Today
High -- | Low -- °F
--% Chance of Precip.
Yesterday
High -- | Low -- °F
Precip. -- in
Pressure 29.92 in
Visibility 10.0 miles
Clouds Few 9000 ft
Few 15000 ft
Few 20000 ft
Heat Index 82 °F
Dew Point 23 °F
Humidity 10%
Rainfall 0.00 in
Snow Depth Not available.
6:16 AM 7:48 PM
Waning Crescent, 1% visible
METAR KAPA 201753Z 06006KT 10SM FEW090 FEW150 FEW200 29/M02 A3016 RMK AO2 SLP132 VIRGA DSNT SW-NW T02891022 10294 20128 50002
Pressure 29.92 in
Visibility 10.0 miles
Clouds Few 9000 ft
Few 15000 ft
Few 20000 ft
Heat Index 82 °F
Dew Point 23 °F
Humidity 10%
Rainfall 0.00 in
Snow Depth Not available.
6:16 AM 7:48 PM
Waning Crescent, 1% visible
METAR KAPA 201753Z 06006KT 10SM FEW090 FEW150 FEW200 29/M02 A3016 RMK AO2 SLP132 VIRGA DSNT SW-NW T02891022 10294 20128 50002

Get Severe Weather Alerts

Thanks for signing up!

Be on the lookout for a verification email in your inbox.

You'll start receiving the daily forecast at 6 AM.

×

10-Day Weather Forecast

Almanac

Astronomy

Aug. 20, 2017 Rise Set
Actual Time
Civil Twilight
Nautical Twilight
Astronomical Twilight
Moon
Length of Visible Light
Length of Day
Tomorrow will be .
, % of the Moon is Illuminated

Today's Extremes

State Highs State Lows

Community

WunderPhotos

Category 6

Welcome to Category 6. This is the collective home for Weather Underground's featured writeups by Dr. Jeff Masters (right), Bob Henson (left), Chris Burt, and other regular contributors.

Nearby

Air Quality

  Air Quality AQ Index Pollutant
Not available.

Snow Depth

Station Depth Elevation

Earthquake Activity

City Distance Mag. Time & Date
Minimum magnitude displayed is 2.5.

Coastal Water Temperatures

Place Temperature

Stations

Nearby Weather Stations

Station Location Temp. Windchill Dew Point Humidity Wind Precip. Elev Updated Type
                   

Watches & Warnings

There are currently no watches in effect.